createdAt,value
2017-07-07T14:44:14.408Z,6660
2017-07-07T14:45:15.267Z,6072
2017-07-07T14:46:13.316Z,6668
2017-07-07T14:47:13.336Z,6928
2017-07-07T14:48:13.662Z,6476
2017-07-07T14:49:13.339Z,6536
2017-07-07T14:50:15.138Z,7232
2017-07-07T14:51:14.009Z,6984
2017-07-07T14:52:13.692Z,6844
2017-07-07T14:53:13.384Z,7168
2017-07-07T14:54:13.691Z,7704
2017-07-07T14:55:15.028Z,8964
2017-07-07T14:56:13.711Z,8456
2017-07-07T14:57:13.392Z,7884
2017-07-07T14:58:13.403Z,7628
2017-07-07T14:59:14.175Z,6768
2017-07-07T15:00:14.978Z,6784
2017-07-07T15:01:13.433Z,6956
2017-07-07T15:02:13.431Z,7248
2017-07-07T15:03:14.139Z,7564
2017-07-07T15:04:13.791Z,7912
2017-07-07T15:05:14.829Z,8500
2017-07-07T15:06:14.814Z,7908
2017-07-07T15:07:13.836Z,7812
2017-07-07T15:08:13.481Z,7724
2017-07-07T15:09:13.811Z,8624
2017-07-07T15:10:15.312Z,7852
2017-07-07T15:11:13.827Z,7504
2017-07-07T15:12:13.516Z,7240
2017-07-07T15:13:13.850Z,7944
2017-07-07T15:14:14.379Z,7840
2017-07-07T15:15:15.920Z,7800
2017-07-07T15:16:13.874Z,7492
2017-07-07T15:17:13.876Z,7084
2017-07-07T15:18:13.582Z,6568
2017-07-07T15:19:13.579Z,5832
2017-07-07T15:20:14.879Z,5732
2017-07-07T15:21:13.917Z,5664
2017-07-07T15:22:13.273Z,5760
2017-07-07T15:23:13.282Z,6044
2017-07-07T15:24:14.765Z,6344
2017-07-07T15:25:15.884Z,6624
2017-07-07T15:26:14.275Z,6772
2017-07-07T15:27:13.636Z,6772
2017-07-07T15:28:14.308Z,6664
2017-07-07T15:29:15.294Z,6484
2017-07-07T15:30:15.183Z,6456
2017-07-07T15:31:14.001Z,6424
2017-07-07T15:32:14.329Z,6592
2017-07-07T15:33:13.823Z,6860
2017-07-07T15:34:14.334Z,7276
2017-07-07T15:35:15.828Z,7452
2017-07-07T15:36:14.031Z,7704
2017-07-07T15:37:14.036Z,7804
2017-07-07T15:38:13.435Z,7820
2017-07-07T15:39:14.406Z,7148
2017-07-07T15:40:15.515Z,6720
2017-07-07T15:41:14.073Z,5944
2017-07-07T15:42:14.081Z,5468
2017-07-07T15:43:13.768Z,5160
2017-07-07T15:44:13.786Z,4880
2017-07-07T15:45:15.029Z,4664
2017-07-07T15:46:14.128Z,4632
2017-07-07T15:47:14.133Z,4628
2017-07-07T15:48:14.135Z,4572
2017-07-07T15:49:14.456Z,4456
2017-07-07T15:50:15.856Z,4280
2017-07-07T15:51:14.155Z,4084
2017-07-07T15:52:13.861Z,3848
2017-07-07T15:53:14.176Z,3596
2017-07-07T15:54:13.858Z,3344
2017-07-07T15:55:15.807Z,3100
2017-07-07T15:56:14.206Z,2900
2017-07-07T15:57:14.214Z,2732
2017-07-07T15:58:14.213Z,2596
2017-07-07T15:59:14.220Z,2484
2017-07-07T16:00:19.640Z,2388
2017-07-07T16:01:13.597Z,2352
2017-07-07T16:02:13.925Z,2388
2017-07-07T16:03:14.257Z,2440
2017-07-07T16:04:14.260Z,2604
2017-07-07T16:05:15.760Z,2884
2017-07-07T16:06:13.973Z,3252
2017-07-07T16:07:14.604Z,3800
2017-07-07T16:08:13.971Z,4512
2017-07-07T16:09:14.303Z,5224
2017-07-07T16:10:15.432Z,5888
2017-07-07T16:11:14.628Z,6532
2017-07-07T16:12:13.999Z,7980
2017-07-07T16:13:14.349Z,8660
2017-07-07T16:14:14.664Z,9412
2017-07-07T16:15:16.736Z,9672
2017-07-07T16:16:14.360Z,9160
2017-07-07T16:17:14.043Z,8704
2017-07-07T16:18:14.689Z,8908
2017-07-07T16:19:14.693Z,8800
2017-07-07T16:20:14.849Z,8608
2017-07-07T16:21:14.081Z,8552
2017-07-07T16:22:14.717Z,8440
2017-07-07T16:23:14.404Z,8164
2017-07-07T16:24:14.100Z,8584
2017-07-07T16:25:15.558Z,7808
2017-07-07T16:26:14.108Z,7368
2017-07-07T16:27:14.437Z,7016
2017-07-07T16:28:14.128Z,6908
2017-07-07T16:29:14.775Z,6828
2017-07-07T16:30:17.181Z,6864
2017-07-07T16:31:14.196Z,6796
2017-07-07T16:32:14.162Z,6496
2017-07-07T16:33:14.185Z,6080
2017-07-07T16:34:14.813Z,5664
2017-07-07T16:35:16.252Z,5268
2017-07-07T16:36:14.201Z,4920
2017-07-07T16:37:14.847Z,4668
2017-07-07T16:38:14.850Z,4452
2017-07-07T16:39:14.528Z,4420
2017-07-07T16:40:15.699Z,4384
2017-07-07T16:41:14.868Z,4124
2017-07-07T16:42:14.873Z,3672
2017-07-07T16:43:14.270Z,3152
2017-07-07T16:44:14.573Z,2836
2017-07-07T16:45:15.979Z,2692
2017-07-07T16:46:16.640Z,2772
2017-07-07T16:47:14.614Z,2896
2017-07-07T16:48:14.915Z,2928
2017-07-07T16:49:14.299Z,2868
2017-07-07T16:50:16.501Z,2748
2017-07-07T16:51:14.942Z,2676
2017-07-07T16:52:14.327Z,2600
2017-07-07T16:53:14.644Z,2472
2017-07-07T16:54:14.977Z,2360
2017-07-07T16:55:16.185Z,2284
2017-07-07T16:56:14.665Z,2264
2017-07-07T16:57:14.689Z,2316
2017-07-07T16:58:14.676Z,2428
2017-07-07T16:59:14.370Z,2556
2017-07-07T17:00:16.169Z,2640
2017-07-07T17:01:15.767Z,2680
2017-07-07T17:02:15.049Z,2672
2017-07-07T17:03:40.236Z,2576
2017-07-07T17:04:14.721Z,2540
2017-07-07T17:05:16.338Z,2468
2017-07-07T17:06:14.739Z,2416
2017-07-07T17:07:14.741Z,2384
2017-07-07T17:08:14.758Z,2352
2017-07-07T17:09:14.108Z,2328
2017-07-07T17:10:15.549Z,2296
2017-07-07T17:11:14.445Z,2260
2017-07-07T17:12:14.452Z,2240
2017-07-07T17:13:14.775Z,2256
2017-07-07T17:14:15.107Z,2340
2017-07-07T17:15:16.150Z,2448
2017-07-07T17:16:18.726Z,2568
2017-07-07T17:17:15.123Z,2716
2017-07-07T17:18:14.814Z,2872
2017-07-07T17:19:14.830Z,3028
2017-07-07T17:20:16.867Z,3112
2017-07-07T17:21:14.506Z,3152
2017-07-07T17:22:14.516Z,3192
2017-07-07T17:23:14.870Z,3236
2017-07-07T17:24:14.849Z,3264
2017-07-07T17:25:16.392Z,3280
2017-07-07T17:26:15.185Z,3292
2017-07-07T17:27:14.869Z,3308
2017-07-07T17:28:14.877Z,3312
2017-07-07T17:29:14.573Z,3248
2017-07-07T17:30:16.010Z,3140
2017-07-07T17:31:14.893Z,3028
2017-07-07T17:32:14.581Z,2932
2017-07-07T17:33:14.904Z,2872
2017-07-07T17:34:14.608Z,2820
2017-07-07T17:35:16.381Z,2760
2017-07-07T17:36:15.250Z,2692
2017-07-07T17:37:15.252Z,2612
2017-07-07T17:38:14.622Z,2516
2017-07-07T17:39:14.946Z,2540
2017-07-07T17:40:16.569Z,2472
2017-07-07T17:41:15.279Z,2444
2017-07-07T17:42:14.990Z,2424
2017-07-07T17:43:14.961Z,2412
2017-07-07T17:44:15.320Z,2260
2017-07-07T17:45:16.274Z,2244
2017-07-07T17:46:14.987Z,2232
2017-07-07T17:47:15.873Z,2240
2017-07-07T17:48:15.037Z,2416
2017-07-07T17:49:15.488Z,2460
2017-07-07T17:50:16.243Z,2480
2017-07-07T17:51:15.042Z,2488
2017-07-07T17:52:16.830Z,2556
2017-07-07T17:53:14.719Z,2656
2017-07-07T17:54:15.041Z,2780
2017-07-07T17:55:16.544Z,2948
2017-07-07T17:56:15.465Z,3184
2017-07-07T17:57:14.748Z,3444
2017-07-07T17:58:14.746Z,3608
2017-07-07T17:59:15.088Z,3780
2017-07-07T18:00:15.800Z,3736
2017-07-07T18:01:15.097Z,3584
2017-07-07T18:02:15.307Z,3460
2017-07-07T18:03:15.446Z,3340
2017-07-07T18:04:14.800Z,3240
2017-07-07T18:05:16.645Z,3208
2017-07-07T18:06:15.125Z,3152
2017-07-07T18:07:15.125Z,2980
2017-07-07T18:08:15.134Z,2844
2017-07-07T18:09:15.492Z,2840
2017-07-07T18:10:15.994Z,2916
2017-07-07T18:11:14.878Z,3040
2017-07-07T18:12:15.238Z,3128
2017-07-07T18:13:15.602Z,3096
2017-07-07T18:14:15.220Z,2976
2017-07-07T18:15:17.148Z,2696
2017-07-07T18:16:14.875Z,2460
2017-07-07T18:17:15.240Z,2372
2017-07-07T18:18:14.932Z,2324
2017-07-07T18:19:16.114Z,2296
2017-07-07T18:20:18.197Z,2340
2017-07-07T18:21:14.650Z,2380
2017-07-07T18:22:15.288Z,2464
2017-07-07T18:23:14.914Z,2540
2017-07-07T18:24:15.262Z,2684
2017-07-07T18:25:16.796Z,2808
2017-07-07T18:26:14.932Z,2812
2017-07-07T18:27:15.259Z,2716
2017-07-07T18:28:15.265Z,2536
2017-07-07T18:29:15.599Z,2304
2017-07-07T18:30:16.220Z,2116
2017-07-07T18:31:14.968Z,2024
2017-07-07T18:32:16.293Z,1984
2017-07-07T18:33:15.677Z,1924
2017-07-07T18:34:14.983Z,1828
2017-07-07T18:35:16.611Z,1716
2017-07-07T18:36:15.002Z,1608
2017-07-07T18:37:15.321Z,1472
2017-07-07T18:38:15.005Z,1312
2017-07-07T18:39:15.338Z,1180
2017-07-07T18:40:16.037Z,1056
2017-07-07T18:41:15.378Z,960
2017-07-07T18:42:15.360Z,888
2017-07-07T18:43:15.360Z,804
2017-07-07T18:44:15.045Z,780
2017-07-07T18:45:17.174Z,800
2017-07-07T18:46:15.709Z,836
2017-07-07T18:47:15.061Z,916
2017-07-07T18:48:15.074Z,1000
2017-07-07T18:49:15.398Z,908
2017-07-07T18:50:16.907Z,880
2017-07-07T18:51:15.093Z,888
2017-07-07T18:52:15.408Z,852
2017-07-07T18:53:15.091Z,824
2017-07-07T18:54:15.424Z,816
2017-07-07T18:55:16.810Z,772
2017-07-07T18:56:15.482Z,712
2017-07-07T18:57:15.112Z,656
2017-07-07T18:58:15.775Z,620
2017-07-07T18:59:15.769Z,588
2017-07-07T19:00:17.446Z,572
2017-07-07T19:01:15.777Z,568
2017-07-07T19:02:15.145Z,576
2017-07-07T19:03:15.786Z,600
2017-07-07T19:04:15.805Z,600
2017-07-07T19:05:16.617Z,568
2017-07-07T19:06:15.175Z,520
2017-07-07T19:07:15.497Z,476
2017-07-07T19:08:14.857Z,444
2017-07-07T19:09:15.508Z,420
2017-07-07T19:10:17.809Z,404
2017-07-07T19:11:15.183Z,392
2017-07-07T19:12:14.885Z,388
2017-07-07T19:13:15.204Z,372
2017-07-07T19:14:14.899Z,360
2017-07-07T19:15:16.926Z,344
2017-07-07T19:16:15.213Z,332
2017-07-07T19:17:15.546Z,316
2017-07-07T19:18:15.887Z,304
2017-07-07T19:19:15.566Z,292
2017-07-07T19:20:17.139Z,272
2017-07-07T19:21:15.567Z,256
2017-07-07T19:22:15.570Z,240
2017-07-07T19:23:15.247Z,228
2017-07-07T19:24:15.265Z,212
2017-07-07T19:25:16.694Z,200
2017-07-07T19:26:15.583Z,188
2017-07-07T19:27:15.267Z,176
2017-07-07T19:28:15.270Z,164
2017-07-07T19:29:15.916Z,148
2017-07-07T19:30:17.090Z,136
2017-07-07T19:31:14.971Z,128
2017-07-07T19:32:15.927Z,116
2017-07-07T19:33:15.678Z,108
2017-07-07T19:34:15.953Z,96
2017-07-07T19:35:17.140Z,92
2017-07-07T19:36:15.312Z,84
2017-07-07T19:37:15.705Z,76
2017-07-07T19:38:15.646Z,68
2017-07-07T19:39:15.641Z,64
2017-07-07T19:40:17.715Z,56
2017-07-07T19:41:15.342Z,52
2017-07-07T19:42:15.403Z,48
2017-07-07T19:43:16.038Z,40
2017-07-07T19:44:15.690Z,36
2017-07-07T19:45:16.868Z,36
2017-07-07T19:46:15.680Z,32
2017-07-07T19:47:15.685Z,28
2017-07-07T19:48:15.801Z,24
2017-07-07T19:49:16.255Z,20
2017-07-07T19:50:16.880Z,20
2017-07-07T19:51:15.766Z,16
2017-07-07T19:52:15.403Z,12
2017-07-07T19:53:15.712Z,12
2017-07-07T19:54:16.038Z,8
2017-07-07T19:55:17.816Z,8
2017-07-07T19:56:15.736Z,8
2017-07-07T19:57:15.729Z,8
2017-07-07T19:58:15.734Z,8
2017-07-07T19:59:15.751Z,4
2017-07-07T20:00:17.169Z,4
2017-07-07T20:01:16.070Z,4
2017-07-07T20:02:15.753Z,4
2017-07-07T20:03:20.344Z,4
2017-07-07T20:04:16.103Z,4
2017-07-07T20:05:16.983Z,0
2017-07-07T20:06:15.131Z,4
2017-07-07T20:07:15.463Z,4
2017-07-07T20:08:15.486Z,4
2017-07-07T20:09:15.810Z,4
2017-07-07T20:10:18.203Z,4
2017-07-07T20:11:15.800Z,0
2017-07-07T20:12:15.166Z,0
2017-07-07T20:13:16.135Z,0
2017-07-07T20:14:15.809Z,0
2017-07-07T20:15:17.620Z,0
2017-07-07T20:16:15.907Z,0
2017-07-07T20:17:16.159Z,0
2017-07-07T20:18:16.276Z,0
2017-07-07T20:19:15.518Z,0
2017-07-07T20:20:16.687Z,0
2017-07-07T20:21:16.386Z,0
2017-07-07T20:22:15.894Z,0
2017-07-07T20:23:15.585Z,0
2017-07-07T20:24:16.183Z,0
2017-07-07T20:25:16.597Z,0
2017-07-07T20:26:15.882Z,0
2017-07-07T20:27:15.560Z,0
2017-07-07T20:28:15.894Z,0
2017-07-07T20:29:15.931Z,0
2017-07-07T20:30:17.097Z,0
2017-07-07T20:31:15.887Z,0
2017-07-07T20:32:15.886Z,0
2017-07-07T20:33:16.193Z,0
2017-07-07T20:34:15.926Z,0
2017-07-07T20:35:17.156Z,0
2017-07-07T20:36:15.594Z,0
2017-07-07T20:37:15.913Z,0
2017-07-07T20:38:15.912Z,0
2017-07-07T20:39:15.927Z,0
2017-07-07T20:40:18.157Z,0
2017-07-07T20:41:16.271Z,0
2017-07-07T20:42:16.259Z,0
2017-07-07T20:43:15.631Z,0
2017-07-07T20:44:16.018Z,0
2017-07-07T20:45:18.332Z,0
2017-07-07T20:46:15.631Z,0
2017-07-07T20:47:15.644Z,0
2017-07-07T20:48:16.833Z,0
2017-07-07T20:49:15.634Z,0
2017-07-07T20:50:17.058Z,0
2017-07-07T20:51:15.981Z,0
2017-07-07T20:52:15.977Z,0
2017-07-07T20:53:16.300Z,0
2017-07-07T20:54:15.666Z,0
2017-07-07T20:55:17.658Z,0
2017-07-07T20:56:15.669Z,0
2017-07-07T20:57:16.029Z,0
2017-07-07T20:58:16.327Z,0
2017-07-07T20:59:16.391Z,0
2017-07-07T21:00:17.315Z,0
2017-07-07T21:01:16.329Z,0
2017-07-07T21:02:16.354Z,0
2017-07-07T21:03:18.824Z,0
2017-07-07T21:04:15.700Z,0
2017-07-07T21:05:17.465Z,0
2017-07-07T21:06:15.712Z,0
2017-07-07T21:07:15.721Z,0
2017-07-07T21:08:16.046Z,0
2017-07-07T21:09:16.376Z,0
2017-07-07T21:10:17.757Z,0
